createdAt,value
2019-06-15T00:01:47.186Z,4.03
2019-06-15T00:04:17.000Z,4.00
2019-06-15T00:06:46.762Z,3.30
2019-06-15T00:09:16.530Z,3.47
2019-06-15T00:11:46.286Z,3.87
2019-06-15T00:14:16.046Z,3.77
2019-06-15T00:16:45.834Z,3.63
2019-06-15T00:19:15.704Z,3.40
2019-06-15T00:21:45.452Z,3.50
2019-06-15T00:24:15.265Z,3.70
2019-06-15T00:26:45.323Z,3.43
2019-06-15T00:29:15.138Z,3.63
2019-06-15T00:31:45.750Z,3.47
2019-06-15T00:34:16.054Z,3.57
2019-06-15T00:36:45.818Z,3.60
2019-06-15T00:39:15.760Z,4.03
2019-06-15T00:41:45.519Z,3.33
2019-06-15T00:44:15.287Z,3.63
2019-06-15T00:46:45.136Z,3.80
2019-06-15T00:49:15.872Z,3.37
2019-06-15T00:51:45.882Z,4.00
2019-06-15T00:54:16.587Z,3.90
2019-06-15T00:56:46.426Z,3.57
2019-06-15T00:59:16.203Z,3.70
2019-06-15T01:01:45.952Z,3.77
2019-06-15T01:04:15.752Z,3.57
2019-06-15T01:06:45.627Z,3.70
2019-06-15T01:09:15.406Z,3.53
2019-06-15T01:11:45.205Z,3.90
2019-06-15T01:14:14.963Z,4.00
2019-06-15T01:16:44.714Z,3.50
2019-06-15T01:19:14.483Z,3.80
2019-06-15T01:21:44.230Z,4.17
2019-06-15T01:24:13.987Z,4.13
2019-06-15T01:26:43.779Z,3.80
2019-06-15T01:29:13.564Z,3.83
2019-06-15T01:31:44.725Z,3.87
2019-06-15T01:34:14.757Z,3.80
2019-06-15T01:36:44.545Z,3.87
2019-06-15T01:39:14.367Z,3.70
2019-06-15T01:41:44.163Z,3.83
2019-06-15T01:44:14.038Z,3.83
2019-06-15T01:46:43.953Z,3.30
2019-06-15T01:49:15.072Z,3.70
2019-06-15T01:51:44.898Z,3.47
2019-06-15T01:54:15.592Z,3.70
2019-06-15T01:56:45.378Z,4.27
2019-06-15T01:59:15.170Z,3.60
2019-06-15T02:01:45.003Z,3.53
2019-06-15T02:04:14.823Z,3.73
2019-06-15T02:06:44.591Z,3.70
2019-06-15T02:09:14.381Z,3.57
2019-06-15T02:11:44.250Z,3.83
2019-06-15T02:14:14.038Z,4.30
2019-06-15T02:16:43.897Z,3.83
2019-06-15T02:19:13.754Z,4.00
2019-06-15T02:21:43.538Z,3.60
2019-06-15T02:24:13.346Z,3.70
2019-06-15T02:26:43.250Z,3.60
2019-06-15T02:29:13.041Z,4.10
2019-06-15T02:34:26.011Z,4.03
2019-06-15T02:36:56.682Z,3.93
2019-06-15T02:39:26.469Z,3.90
2019-06-15T02:41:56.250Z,3.80
2019-06-15T02:44:26.044Z,3.47
2019-06-15T02:46:56.482Z,4.10
2019-06-15T02:49:27.540Z,4.30
2019-06-15T02:51:57.689Z,4.10
2019-06-15T02:54:27.473Z,3.60
2019-06-15T02:56:57.339Z,4.20
2019-06-15T02:59:27.151Z,3.97
2019-06-15T03:01:57.044Z,4.20
2019-06-15T03:04:26.899Z,4.23
2019-06-15T03:06:57.226Z,4.40
2019-06-15T03:09:27.766Z,4.40
2019-06-15T03:11:57.854Z,4.30
2019-06-15T03:14:28.703Z,4.03
2019-06-15T03:16:58.517Z,4.57
2019-06-15T03:19:28.328Z,4.10
2019-06-15T03:21:58.162Z,3.90
2019-06-15T03:24:27.947Z,4.07
2019-06-15T03:26:57.868Z,3.90
2019-06-15T03:29:27.702Z,3.93
2019-06-15T03:31:58.629Z,4.07
2019-06-15T03:34:28.483Z,4.27
2019-06-15T03:36:58.644Z,4.00
2019-06-15T03:39:28.434Z,4.07
2019-06-15T03:41:58.219Z,4.10
2019-06-15T03:44:28.546Z,4.27
2019-06-15T03:46:59.297Z,4.27
2019-06-15T03:49:29.263Z,3.80
2019-06-15T03:51:59.064Z,4.30
2019-06-15T03:54:28.927Z,4.13
2019-06-15T03:56:58.804Z,4.53
2019-06-15T03:59:28.594Z,3.80
2019-06-15T04:01:58.459Z,4.07
2019-06-15T04:04:28.764Z,4.63
2019-06-15T04:06:58.566Z,4.40
2019-06-15T04:09:28.367Z,4.37
2019-06-15T04:11:58.226Z,4.17
2019-06-15T04:14:28.019Z,4.63
2019-06-15T04:16:57.882Z,3.73
2019-06-15T04:19:27.710Z,4.17
2019-06-15T04:21:57.631Z,4.70
2019-06-15T04:24:27.494Z,4.37
2019-06-15T04:26:57.484Z,3.83
2019-06-15T04:29:27.270Z,4.30
2019-06-15T04:31:57.956Z,4.17
2019-06-15T04:34:28.058Z,4.57
2019-06-15T04:36:58.780Z,4.70
2019-06-15T04:39:28.896Z,4.13
2019-06-15T04:41:59.315Z,3.90
2019-06-15T04:44:29.110Z,3.90
2019-06-15T04:46:58.924Z,4.40
2019-06-15T04:49:29.066Z,4.33
2019-06-15T04:51:58.899Z,3.70
2019-06-15T04:54:28.694Z,3.67
2019-06-15T04:56:58.490Z,4.30
2019-06-15T04:59:28.291Z,3.67
2019-06-15T05:01:58.082Z,4.07
2019-06-15T05:04:28.551Z,3.70
2019-06-15T05:06:58.372Z,4.10
2019-06-15T05:09:28.173Z,3.57
2019-06-15T05:11:57.991Z,3.70
2019-06-15T05:14:27.895Z,3.47
2019-06-15T05:16:57.758Z,3.40
2019-06-15T05:19:27.586Z,3.63
2019-06-15T05:21:57.424Z,3.93
2019-06-15T05:24:27.233Z,3.63
2019-06-15T05:27:05.862Z,3.60
2019-06-15T05:29:29.058Z,3.57
2019-06-15T05:32:00.287Z,3.63
2019-06-15T05:34:30.327Z,3.20
2019-06-15T05:37:01.487Z,3.47
2019-06-15T05:39:31.279Z,4.10
2019-06-15T05:42:01.062Z,3.43
2019-06-15T05:44:30.930Z,3.40
2019-06-15T05:47:00.717Z,3.40
2019-06-15T05:49:30.506Z,3.17
2019-06-15T05:52:00.619Z,3.10
2019-06-15T05:54:30.422Z,2.80
2019-06-15T05:57:00.221Z,3.03
2019-06-15T05:59:30.079Z,3.23
2019-06-15T06:01:59.871Z,2.80
2019-06-15T06:04:29.658Z,3.13
2019-06-15T06:06:59.450Z,3.30
2019-06-15T06:09:29.345Z,3.10
2019-06-15T06:11:59.267Z,3.27
2019-06-15T06:14:29.986Z,2.90
2019-06-15T06:17:00.097Z,2.97
2019-06-15T06:19:29.891Z,3.13
2019-06-15T06:21:59.704Z,3.00
2019-06-15T06:24:29.572Z,2.90
2019-06-15T06:26:59.519Z,3.03
2019-06-15T06:29:29.320Z,3.17
2019-06-15T06:31:59.678Z,3.47
2019-06-15T06:34:31.219Z,2.90
2019-06-15T06:37:01.265Z,2.63
2019-06-15T06:39:31.499Z,2.80
2019-06-15T06:42:01.279Z,2.70
2019-06-15T06:44:31.140Z,3.00
2019-06-15T06:47:00.944Z,2.70
2019-06-15T06:49:30.795Z,2.50
2019-06-15T06:52:00.677Z,2.60
2019-06-15T06:54:31.150Z,2.97
2019-06-15T06:57:00.954Z,2.70
2019-06-15T06:59:30.906Z,3.00
2019-06-15T07:02:00.858Z,2.87
2019-06-15T07:04:30.942Z,3.00
2019-06-15T07:07:01.339Z,2.60
2019-06-15T07:09:31.126Z,2.80
2019-06-15T07:12:00.919Z,3.23
2019-06-15T07:14:30.725Z,3.07
2019-06-15T07:17:00.548Z,2.80
2019-06-15T07:19:30.345Z,3.03
2019-06-15T07:22:00.227Z,2.87
2019-06-15T07:24:30.051Z,3.03
2019-06-15T07:26:59.834Z,2.73
2019-06-15T07:29:29.735Z,2.37
2019-06-15T07:32:00.497Z,2.60
2019-06-15T07:34:30.285Z,2.60
2019-06-15T07:37:01.751Z,2.57
2019-06-15T07:39:31.686Z,2.60
2019-06-15T07:42:01.475Z,2.43
2019-06-15T07:44:31.337Z,2.57
2019-06-15T07:47:01.123Z,2.60
2019-06-15T07:49:30.899Z,2.83
2019-06-15T07:52:01.262Z,2.60
2019-06-15T07:54:31.282Z,2.43
2019-06-15T07:57:03.119Z,2.90
2019-06-15T07:59:32.910Z,2.20
2019-06-15T08:02:02.769Z,2.40
2019-06-15T08:04:32.670Z,2.53
2019-06-15T08:07:02.454Z,2.60
2019-06-15T08:09:32.245Z,2.27
2019-06-15T08:12:02.050Z,2.30
2019-06-15T08:14:31.834Z,2.07
2019-06-15T08:17:02.500Z,2.63
2019-06-15T08:19:32.334Z,2.40
2019-06-15T08:22:02.198Z,2.20
2019-06-15T08:24:31.991Z,2.23
2019-06-15T08:27:01.803Z,2.60
2019-06-15T08:29:31.647Z,2.00
2019-06-15T08:32:02.551Z,2.30
2019-06-15T08:34:32.582Z,2.43
2019-06-15T08:37:03.052Z,2.30
2019-06-15T08:39:32.834Z,2.30
2019-06-15T08:42:04.426Z,2.00
2019-06-15T08:44:34.227Z,2.20
2019-06-15T08:47:04.095Z,2.20
2019-06-15T08:49:33.917Z,1.93
2019-06-15T08:52:04.396Z,1.80
2019-06-15T08:54:34.370Z,1.70
2019-06-15T08:57:04.341Z,1.90
2019-06-15T08:59:34.298Z,1.90
2019-06-15T09:02:04.311Z,1.90
2019-06-15T09:04:34.156Z,1.97
2019-06-15T09:07:04.086Z,1.60
2019-06-15T09:09:33.880Z,2.00
2019-06-15T09:12:03.671Z,1.70
2019-06-15T09:14:33.598Z,1.80
2019-06-15T09:17:03.457Z,1.70
2019-06-15T09:19:33.303Z,1.73
2019-06-15T09:22:03.168Z,1.63
2019-06-15T09:24:32.951Z,1.53
2019-06-15T09:27:02.864Z,1.80
2019-06-15T09:29:32.650Z,1.50
2019-06-15T09:32:03.983Z,1.63
2019-06-15T09:34:33.831Z,1.53
2019-06-15T09:37:03.626Z,1.37
2019-06-15T09:39:34.301Z,1.57
2019-06-15T09:42:05.290Z,1.57
2019-06-15T09:44:35.095Z,1.67
2019-06-15T09:47:05.047Z,1.57
2019-06-15T09:49:34.847Z,1.40
2019-06-15T09:52:04.640Z,1.90
2019-06-15T09:54:34.522Z,1.40
2019-06-15T09:57:04.479Z,1.37
2019-06-15T09:59:34.432Z,1.70
2019-06-15T10:02:04.462Z,1.57
2019-06-15T10:04:35.139Z,1.60
2019-06-15T10:07:04.998Z,1.67
2019-06-15T10:09:34.923Z,1.80
2019-06-15T10:12:04.854Z,1.40
2019-06-15T10:14:34.788Z,1.70
2019-06-15T10:17:04.650Z,1.60
2019-06-15T10:19:34.508Z,1.60
2019-06-15T10:22:04.452Z,1.57
2019-06-15T10:24:34.245Z,1.70
2019-06-15T10:27:04.366Z,1.60
2019-06-15T10:29:42.071Z,1.53
2019-06-15T10:32:06.602Z,1.67
2019-06-15T10:34:37.607Z,1.80
2019-06-15T10:37:07.475Z,1.50
2019-06-15T10:39:37.795Z,1.60
2019-06-15T10:42:07.738Z,1.80
2019-06-15T10:44:37.610Z,1.23
2019-06-15T10:47:07.496Z,1.63
2019-06-15T10:49:37.367Z,1.57
2019-06-15T10:52:07.244Z,1.70
2019-06-15T10:54:37.531Z,1.47
2019-06-15T10:57:07.486Z,2.10
2019-06-15T10:59:37.276Z,1.80
2019-06-15T11:02:07.171Z,1.33
2019-06-15T11:04:37.034Z,1.77
2019-06-15T11:07:06.895Z,1.43
2019-06-15T11:09:36.692Z,1.67
2019-06-15T11:12:06.886Z,1.70
2019-06-15T11:14:36.672Z,1.50
2019-06-15T11:17:06.498Z,1.50
2019-06-15T11:19:36.372Z,1.70
2019-06-15T11:22:07.624Z,1.80
2019-06-15T11:24:37.446Z,1.60
2019-06-15T11:27:07.327Z,1.50
2019-06-15T11:29:37.161Z,1.50
2019-06-15T11:32:07.500Z,1.30
2019-06-15T11:34:37.605Z,1.40
2019-06-15T11:37:07.463Z,1.50
2019-06-15T11:39:38.019Z,1.80
2019-06-15T11:42:07.969Z,1.60
2019-06-15T11:44:37.768Z,1.70
2019-06-15T11:47:07.640Z,1.53
2019-06-15T11:49:37.419Z,1.60
2019-06-15T11:52:07.207Z,1.30
2019-06-15T11:54:37.335Z,1.50
2019-06-15T11:57:07.275Z,1.57
2019-06-15T11:59:37.210Z,1.60
2019-06-15T12:02:07.276Z,1.40
2019-06-15T12:04:37.071Z,1.60
2019-06-15T12:07:06.865Z,1.37
2019-06-15T12:09:36.736Z,1.60
2019-06-15T12:12:06.847Z,1.50
2019-06-15T12:14:37.455Z,1.33
2019-06-15T12:17:07.928Z,1.47
2019-06-15T12:19:37.845Z,1.60
2019-06-15T12:22:07.630Z,1.30
2019-06-15T12:24:37.421Z,1.70
2019-06-15T12:27:07.291Z,1.60
2019-06-15T12:29:37.234Z,1.70
2019-06-15T12:32:08.308Z,1.70
2019-06-15T12:34:38.342Z,1.67
2019-06-15T12:37:08.129Z,1.90
2019-06-15T12:39:41.871Z,2.00
2019-06-15T12:42:10.957Z,1.60
2019-06-15T12:44:40.780Z,1.60
2019-06-15T12:47:10.658Z,1.27
2019-06-15T12:49:40.475Z,1.60
2019-06-15T12:52:10.362Z,1.80
2019-06-15T12:54:40.147Z,1.40
2019-06-15T12:57:10.065Z,1.47
2019-06-15T12:59:40.135Z,1.70
2019-06-15T13:02:10.117Z,1.60
2019-06-15T13:04:39.910Z,1.50
2019-06-15T13:07:09.722Z,2.13
2019-06-15T13:09:40.218Z,1.53
2019-06-15T13:12:10.422Z,1.90
2019-06-15T13:14:40.217Z,1.70
2019-06-15T13:17:10.003Z,1.67
2019-06-15T13:19:39.820Z,1.80
2019-06-15T13:22:09.675Z,1.40
2019-06-15T13:24:39.464Z,1.53
2019-06-15T13:27:09.339Z,1.43
2019-06-15T13:29:39.206Z,1.60
2019-06-15T13:32:10.360Z,1.57
2019-06-15T13:34:40.150Z,1.73
2019-06-15T13:37:10.135Z,1.40
2019-06-15T13:39:40.227Z,1.47
2019-06-15T13:42:10.674Z,1.77
2019-06-15T13:44:40.467Z,1.63
2019-06-15T13:47:10.343Z,1.70
2019-06-15T13:49:40.380Z,1.50
2019-06-15T13:52:10.171Z,1.40
2019-06-15T13:54:39.960Z,1.60
2019-06-15T13:57:10.083Z,1.60
2019-06-15T13:59:39.870Z,1.40
2019-06-15T14:02:11.381Z,1.57
2019-06-15T14:04:41.183Z,1.80
2019-06-15T14:07:10.973Z,1.47
2019-06-15T14:09:40.852Z,1.53
2019-06-15T14:12:10.650Z,1.60
2019-06-15T14:14:40.436Z,1.40
2019-06-15T14:17:10.331Z,1.43
2019-06-15T14:19:40.299Z,1.43
2019-06-15T14:22:10.096Z,1.57
2019-06-15T14:24:40.618Z,1.40
2019-06-15T14:27:10.410Z,1.57
2019-06-15T14:29:40.207Z,1.37
2019-06-15T14:32:10.355Z,1.57
2019-06-15T14:34:41.421Z,1.40
2019-06-15T14:37:11.237Z,1.60
2019-06-15T14:39:41.089Z,1.80
2019-06-15T14:42:11.306Z,1.60
2019-06-15T14:44:41.248Z,1.40
2019-06-15T14:47:11.107Z,1.50
2019-06-15T14:49:40.913Z,1.90
2019-06-15T14:52:10.706Z,1.63
2019-06-15T14:54:41.028Z,1.73
2019-06-15T14:57:12.174Z,1.50
2019-06-15T14:59:54.104Z,1.57
2019-06-15T15:02:14.480Z,1.70
2019-06-15T15:04:45.027Z,1.70
2019-06-15T15:07:16.980Z,1.40
2019-06-15T15:09:49.899Z,1.70
2019-06-15T15:12:19.447Z,1.60
2019-06-15T15:14:49.246Z,1.47
2019-06-15T15:17:19.197Z,1.60
2019-06-15T15:19:49.059Z,1.60
2019-06-15T15:22:18.847Z,1.70
2019-06-15T15:24:48.627Z,1.83
2019-06-15T15:27:18.450Z,1.70
2019-06-15T15:29:48.617Z,2.00
2019-06-15T15:32:27.414Z,1.53
2019-06-15T15:34:51.474Z,1.77
2019-06-15T15:37:21.281Z,1.60
2019-06-15T15:39:51.066Z,1.70
2019-06-15T15:42:21.459Z,1.50
2019-06-15T15:44:51.250Z,1.63
2019-06-15T15:47:21.038Z,1.60
2019-06-15T15:49:51.262Z,1.60
2019-06-15T15:52:21.897Z,1.70
2019-06-15T15:54:51.702Z,1.83
2019-06-15T15:57:21.580Z,1.57
2019-06-15T15:59:51.433Z,1.70
2019-06-15T16:02:21.260Z,1.73
2019-06-15T16:04:51.096Z,1.80
2019-06-15T16:07:20.882Z,1.90
2019-06-15T16:09:50.968Z,1.90
2019-06-15T16:12:21.443Z,1.90
2019-06-15T16:14:51.254Z,1.90
2019-06-15T16:17:21.119Z,1.80
2019-06-15T16:19:50.967Z,1.63
2019-06-15T16:22:20.750Z,2.00
2019-06-15T16:24:50.588Z,1.80
2019-06-15T16:27:20.446Z,1.80
2019-06-15T16:29:50.302Z,1.73
2019-06-15T16:32:20.825Z,1.80
2019-06-15T16:34:50.910Z,2.17
2019-06-15T16:37:20.782Z,2.17
2019-06-15T16:39:50.650Z,1.90
2019-06-15T16:42:20.450Z,1.80
2019-06-15T16:44:50.765Z,2.00
2019-06-15T16:47:22.152Z,2.00
2019-06-15T16:49:51.934Z,1.80
2019-06-15T16:52:21.723Z,2.13
2019-06-15T16:54:51.525Z,2.00
2019-06-15T16:57:21.322Z,1.90
2019-06-15T16:59:51.194Z,1.93
2019-06-15T17:02:21.007Z,1.83
2019-06-15T17:04:50.838Z,2.13
2019-06-15T17:07:20.717Z,1.93
2019-06-15T17:09:50.547Z,2.40
2019-06-15T17:12:20.339Z,2.10
2019-06-15T17:14:50.211Z,1.93
2019-06-15T17:17:20.119Z,2.03
2019-06-15T17:19:49.930Z,1.97
2019-06-15T17:22:21.391Z,2.27
2019-06-15T17:24:51.699Z,2.00
2019-06-15T17:27:21.660Z,2.33
2019-06-15T17:29:51.456Z,2.20
2019-06-15T17:32:21.842Z,1.90
2019-06-15T17:34:52.242Z,1.97
2019-06-15T17:37:22.035Z,1.90
2019-06-15T17:39:51.862Z,1.80
2019-06-15T17:42:21.830Z,1.97
2019-06-15T17:44:52.214Z,1.97
2019-06-15T17:47:23.384Z,2.17
2019-06-15T17:49:53.171Z,2.00
2019-06-15T17:52:22.961Z,1.90
2019-06-15T17:54:52.770Z,2.20
2019-06-15T17:57:22.559Z,1.97
2019-06-15T17:59:52.347Z,2.20
2019-06-15T18:02:22.148Z,2.00
2019-06-15T18:04:51.971Z,2.10
2019-06-15T18:07:21.775Z,2.10
2019-06-15T18:09:51.745Z,2.20
2019-06-15T18:12:21.947Z,2.10
2019-06-15T18:14:51.817Z,2.10
2019-06-15T18:17:21.610Z,2.23
2019-06-15T18:19:51.492Z,1.90
2019-06-15T18:22:21.323Z,2.10
2019-06-15T18:24:51.120Z,2.07
2019-06-15T18:27:20.905Z,2.00
2019-06-15T18:29:50.760Z,2.20
2019-06-15T18:32:21.241Z,2.30
2019-06-15T18:34:51.653Z,2.20
2019-06-15T18:37:21.506Z,2.20
2019-06-15T18:39:51.442Z,2.50
2019-06-15T18:42:21.600Z,2.30
2019-06-15T18:44:51.817Z,2.20
2019-06-15T18:47:21.687Z,2.00
2019-06-15T18:49:51.483Z,2.40
2019-06-15T18:52:21.293Z,2.60
2019-06-15T18:54:51.070Z,2.40
2019-06-15T18:57:20.926Z,2.40
2019-06-15T18:59:51.127Z,2.33
2019-06-15T19:02:20.920Z,2.50
2019-06-15T19:04:50.714Z,2.53
2019-06-15T19:07:20.753Z,2.70
2019-06-15T19:09:50.562Z,2.23
2019-06-15T19:12:20.956Z,2.60
2019-06-15T19:14:50.919Z,2.40
2019-06-15T19:17:20.748Z,2.90
2019-06-15T19:19:50.524Z,2.60
2019-06-15T19:22:20.565Z,2.23
2019-06-15T19:24:50.750Z,3.20
2019-06-15T19:27:20.634Z,3.10
2019-06-15T19:29:50.634Z,3.00
2019-06-15T19:32:21.770Z,2.77
2019-06-15T19:34:51.555Z,2.43
2019-06-15T19:37:21.423Z,2.50
2019-06-15T19:39:51.251Z,2.93
2019-06-15T19:42:21.128Z,2.37
2019-06-15T19:44:50.911Z,2.90
2019-06-15T19:47:21.324Z,2.63
2019-06-15T19:49:51.116Z,2.80
2019-06-15T19:52:20.904Z,2.60
2019-06-15T19:54:50.715Z,2.70
2019-06-15T19:57:20.681Z,2.93
2019-06-15T19:59:50.465Z,2.80
2019-06-15T20:02:20.463Z,3.30
2019-06-15T20:05:00.300Z,2.93
2019-06-15T20:07:22.102Z,2.77
2019-06-15T20:09:51.890Z,2.80
2019-06-15T20:12:22.159Z,2.80
2019-06-15T20:14:52.162Z,3.33
2019-06-15T20:17:22.034Z,3.00
2019-06-15T20:19:52.812Z,2.83
2019-06-15T20:22:22.602Z,3.10
2019-06-15T20:24:52.462Z,3.30
2019-06-15T20:27:22.259Z,3.03
2019-06-15T20:29:52.047Z,3.47
2019-06-15T20:32:22.803Z,3.57
2019-06-15T20:34:52.829Z,3.13
2019-06-15T20:37:22.623Z,3.33
2019-06-15T20:39:52.459Z,3.23
2019-06-15T20:42:22.395Z,3.23
2019-06-15T20:44:52.183Z,3.07
2019-06-15T20:47:23.063Z,3.20
2019-06-15T20:49:52.863Z,4.00
2019-06-15T20:52:22.652Z,3.23
2019-06-15T20:54:52.457Z,3.70
2019-06-15T20:57:22.319Z,3.77
2019-06-15T20:59:52.105Z,3.57
2019-06-15T21:02:22.398Z,3.40
2019-06-15T21:04:52.243Z,4.10
2019-06-15T21:07:23.209Z,3.80
2019-06-15T21:09:53.060Z,3.97
2019-06-15T21:12:22.854Z,3.40
2019-06-15T21:14:52.654Z,3.70
2019-06-15T21:17:22.441Z,3.80
2019-06-15T21:19:52.257Z,3.53
2019-06-15T21:22:22.042Z,4.03
2019-06-15T21:24:54.658Z,4.13
2019-06-15T21:27:26.051Z,3.63
2019-06-15T21:29:55.136Z,3.67
2019-06-15T21:32:26.228Z,3.77
2019-06-15T21:34:58.159Z,4.00
2019-06-15T21:37:27.960Z,4.27
2019-06-15T21:39:57.751Z,3.90
2019-06-15T21:42:27.612Z,4.50
2019-06-15T21:44:57.414Z,4.20
2019-06-15T21:47:27.531Z,3.87
2019-06-15T21:49:57.966Z,4.57
2019-06-15T21:52:27.762Z,4.33
2019-06-15T21:54:59.208Z,4.70
2019-06-15T21:57:29.430Z,4.50
2019-06-15T21:59:59.210Z,4.60
2019-06-15T22:02:29.079Z,3.90
2019-06-15T22:04:58.889Z,4.70
2019-06-15T22:07:28.678Z,4.27
2019-06-15T22:09:58.474Z,4.40
2019-06-15T22:12:28.345Z,4.17
2019-06-15T22:14:58.119Z,4.47
2019-06-15T22:17:28.046Z,4.70
2019-06-15T22:19:57.834Z,4.50
2019-06-15T22:22:27.642Z,4.77
2019-06-15T22:24:57.502Z,4.50
2019-06-15T22:27:27.306Z,4.53
2019-06-15T22:29:57.107Z,4.60
2019-06-15T22:32:27.311Z,4.40
2019-06-15T22:34:58.163Z,4.70
2019-06-15T22:37:27.954Z,5.63
2019-06-15T22:39:57.743Z,5.33
2019-06-15T22:42:27.527Z,4.77
2019-06-15T22:44:58.947Z,4.63
2019-06-15T22:47:28.962Z,5.10
2019-06-15T22:49:59.078Z,4.67
2019-06-15T22:52:28.866Z,4.47
2019-06-15T22:54:58.650Z,5.07
2019-06-15T22:57:28.480Z,4.97
2019-06-15T22:59:58.303Z,4.67
2019-06-15T23:02:28.106Z,4.60
2019-06-15T23:04:58.441Z,4.70
2019-06-15T23:07:28.222Z,4.77
2019-06-15T23:09:58.003Z,4.53
2019-06-15T23:12:27.835Z,4.70
2019-06-15T23:14:57.694Z,4.60
2019-06-15T23:17:27.481Z,4.80
2019-06-15T23:19:57.324Z,4.70
2019-06-15T23:22:27.130Z,4.47
2019-06-15T23:24:56.910Z,4.60
2019-06-15T23:27:26.832Z,4.83
2019-06-15T23:29:57.123Z,4.73
2019-06-15T23:32:28.346Z,4.93
2019-06-15T23:34:58.386Z,4.50
2019-06-15T23:37:28.311Z,4.67
2019-06-15T23:40:16.317Z,5.00
2019-06-15T23:42:47.254Z,4.77
2019-06-15T23:45:18.473Z,4.80
2019-06-15T23:47:48.837Z,4.07
2019-06-15T23:50:21.872Z,4.17
2019-06-15T23:52:51.811Z,4.43
2019-06-15T23:55:21.956Z,4.33
2019-06-15T23:57:51.772Z,4.10
